sensor_id;sensor_type;location;lat;lon;timestamp;temperature;humidity
78516;SHT31;67815;51.990;5.688;2023-11-21T00:01:38;11.7;70.6
78516;SHT31;67815;51.990;5.688;2023-11-21T00:04:07;11.7;70.8
78516;SHT31;67815;51.990;5.688;2023-11-21T00:06:37;11.7;71.0
78516;SHT31;67815;51.990;5.688;2023-11-21T00:09:08;11.6;71.1
78516;SHT31;67815;51.990;5.688;2023-11-21T00:11:40;11.6;71.2
78516;SHT31;67815;51.990;5.688;2023-11-21T00:14:11;11.6;71.1
78516;SHT31;67815;51.990;5.688;2023-11-21T00:16:42;11.6;71.3
78516;SHT31;67815;51.990;5.688;2023-11-21T00:19:12;11.6;71.3
78516;SHT31;67815;51.990;5.688;2023-11-21T00:21:41;11.6;71.3
78516;SHT31;67815;51.990;5.688;2023-11-21T00:24:12;11.5;71.3
78516;SHT31;67815;51.990;5.688;2023-11-21T00:26:42;11.5;71.2
78516;SHT31;67815;51.990;5.688;2023-11-21T00:29:14;11.5;71.2
78516;SHT31;67815;51.990;5.688;2023-11-21T00:31:45;11.5;71.2
78516;SHT31;67815;51.990;5.688;2023-11-21T00:34:14;11.5;71.2
78516;SHT31;67815;51.990;5.688;2023-11-21T00:36:44;11.5;71.2
78516;SHT31;67815;51.990;5.688;2023-11-21T00:39:13;11.5;71.1
78516;SHT31;67815;51.990;5.688;2023-11-21T00:41:43;11.4;71.1
78516;SHT31;67815;51.990;5.688;2023-11-21T00:44:12;11.4;71.1
78516;SHT31;67815;51.990;5.688;2023-11-21T00:46:42;11.4;71.0
78516;SHT31;67815;51.990;5.688;2023-11-21T00:49:11;11.4;70.8
78516;SHT31;67815;51.990;5.688;2023-11-21T00:51:41;11.4;70.7
78516;SHT31;67815;51.990;5.688;2023-11-21T00:54:10;11.4;70.8
78516;SHT31;67815;51.990;5.688;2023-11-21T00:56:40;11.4;70.7
78516;SHT31;67815;51.990;5.688;2023-11-21T00:59:09;11.3;70.7
78516;SHT31;67815;51.990;5.688;2023-11-21T01:01:39;11.3;70.6
78516;SHT31;67815;51.990;5.688;2023-11-21T01:04:09;11.3;70.8
78516;SHT31;67815;51.990;5.688;2023-11-21T01:06:39;11.3;70.8
78516;SHT31;67815;51.990;5.688;2023-11-21T01:09:09;11.2;70.9
78516;SHT31;67815;51.990;5.688;2023-11-21T01:11:40;11.2;71.1
78516;SHT31;67815;51.990;5.688;2023-11-21T01:14:10;11.2;71.2
78516;SHT31;67815;51.990;5.688;2023-11-21T01:16:40;11.2;71.2
78516;SHT31;67815;51.990;5.688;2023-11-21T01:19:10;11.2;71.3
78516;SHT31;67815;51.990;5.688;2023-11-21T01:21:40;11.2;71.5
78516;SHT31;67815;51.990;5.688;2023-11-21T01:24:10;11.2;71.6
78516;SHT31;67815;51.990;5.688;2023-11-21T01:26:39;11.2;71.6
78516;SHT31;67815;51.990;5.688;2023-11-21T01:29:09;11.1;71.8
78516;SHT31;67815;51.990;5.688;2023-11-21T01:31:38;11.1;71.9
78516;SHT31;67815;51.990;5.688;2023-11-21T01:34:09;11.1;71.9
78516;SHT31;67815;51.990;5.688;2023-11-21T01:36:38;11.1;72.1
78516;SHT31;67815;51.990;5.688;2023-11-21T01:39:08;11.1;72.3
78516;SHT31;67815;51.990;5.688;2023-11-21T01:41:42;11.1;72.5
78516;SHT31;67815;51.990;5.688;2023-11-21T01:44:13;11.1;72.7
78516;SHT31;67815;51.990;5.688;2023-11-21T01:46:46;11.1;72.8
78516;SHT31;67815;51.990;5.688;2023-11-21T01:49:17;11.1;73.0
78516;SHT31;67815;51.990;5.688;2023-11-21T01:51:49;11.1;72.8
78516;SHT31;67815;51.990;5.688;2023-11-21T01:54:20;11.1;72.6
78516;SHT31;67815;51.990;5.688;2023-11-21T01:56:51;11.1;72.5
78516;SHT31;67815;51.990;5.688;2023-11-21T01:59:21;11.1;72.5
78516;SHT31;67815;51.990;5.688;2023-11-21T02:01:51;11.1;72.5
78516;SHT31;67815;51.990;5.688;2023-11-21T02:04:21;11.1;72.6
78516;SHT31;67815;51.990;5.688;2023-11-21T02:06:50;11.1;72.6
78516;SHT31;67815;51.990;5.688;2023-11-21T02:09:25;11.1;72.6
78516;SHT31;67815;51.990;5.688;2023-11-21T02:11:56;11.1;72.6
78516;SHT31;67815;51.990;5.688;2023-11-21T02:14:26;11.1;72.6
78516;SHT31;67815;51.990;5.688;2023-11-21T02:16:59;11.1;72.4
78516;SHT31;67815;51.990;5.688;2023-11-21T02:19:29;11.1;72.3
78516;SHT31;67815;51.990;5.688;2023-11-21T02:22:00;11.1;72.2
78516;SHT31;67815;51.990;5.688;2023-11-21T02:24:32;11.2;72.2
78516;SHT31;67815;51.990;5.688;2023-11-21T02:27:02;11.2;71.8
78516;SHT31;67815;51.990;5.688;2023-11-21T02:29:32;11.2;71.6
78516;SHT31;67815;51.990;5.688;2023-11-21T02:32:01;11.2;71.7
78516;SHT31;67815;51.990;5.688;2023-11-21T02:34:31;11.2;71.8
78516;SHT31;67815;51.990;5.688;2023-11-21T02:37:00;11.2;71.9
78516;SHT31;67815;51.990;5.688;2023-11-21T02:39:32;11.2;71.7
78516;SHT31;67815;51.990;5.688;2023-11-21T02:42:02;11.2;71.7
78516;SHT31;67815;51.990;5.688;2023-11-21T02:44:32;11.2;71.8
78516;SHT31;67815;51.990;5.688;2023-11-21T02:47:02;11.2;72.1
78516;SHT31;67815;51.990;5.688;2023-11-21T02:49:31;11.3;72.4
78516;SHT31;67815;51.990;5.688;2023-11-21T02:52:02;11.2;72.4
78516;SHT31;67815;51.990;5.688;2023-11-21T02:54:32;11.2;72.5
78516;SHT31;67815;51.990;5.688;2023-11-21T02:57:04;11.2;72.5
78516;SHT31;67815;51.990;5.688;2023-11-21T02:59:35;11.2;72.4
78516;SHT31;67815;51.990;5.688;2023-11-21T03:02:04;11.2;72.4
78516;SHT31;67815;51.990;5.688;2023-11-21T03:04:35;11.2;72.4
78516;SHT31;67815;51.990;5.688;2023-11-21T03:07:07;11.2;72.4
78516;SHT31;67815;51.990;5.688;2023-11-21T03:09:36;11.2;72.3
78516;SHT31;67815;51.990;5.688;2023-11-21T03:12:09;11.2;72.3
78516;SHT31;67815;51.990;5.688;2023-11-21T03:14:39;11.2;72.3
78516;SHT31;67815;51.990;5.688;2023-11-21T03:17:09;11.2;72.3
78516;SHT31;67815;51.990;5.688;2023-11-21T03:19:39;11.2;72.7
78516;SHT31;67815;51.990;5.688;2023-11-21T03:22:10;11.2;72.5
78516;SHT31;67815;51.990;5.688;2023-11-21T03:24:40;11.2;72.6
78516;SHT31;67815;51.990;5.688;2023-11-21T03:27:10;11.2;72.6
78516;SHT31;67815;51.990;5.688;2023-11-21T03:29:40;11.2;72.8
78516;SHT31;67815;51.990;5.688;2023-11-21T03:32:09;11.2;72.7
78516;SHT31;67815;51.990;5.688;2023-11-21T03:34:56;11.2;72.9
78516;SHT31;67815;51.990;5.688;2023-11-21T03:37:25;11.2;72.9
78516;SHT31;67815;51.990;5.688;2023-11-21T03:39:56;11.2;73.1
78516;SHT31;67815;51.990;5.688;2023-11-21T03:42:26;11.2;73.2
78516;SHT31;67815;51.990;5.688;2023-11-21T03:44:56;11.2;73.4
78516;SHT31;67815;51.990;5.688;2023-11-21T03:47:27;11.2;73.4
78516;SHT31;67815;51.990;5.688;2023-11-21T03:49:57;11.2;73.6
78516;SHT31;67815;51.990;5.688;2023-11-21T03:52:27;11.3;73.6
78516;SHT31;67815;51.990;5.688;2023-11-21T03:54:56;11.3;73.7
78516;SHT31;67815;51.990;5.688;2023-11-21T03:57:26;11.3;73.7
78516;SHT31;67815;51.990;5.688;2023-11-21T03:59:55;11.3;73.7
78516;SHT31;67815;51.990;5.688;2023-11-21T04:02:25;11.3;73.8
78516;SHT31;67815;51.990;5.688;2023-11-21T04:04:55;11.3;73.9
78516;SHT31;67815;51.990;5.688;2023-11-21T04:07:25;11.3;73.9
78516;SHT31;67815;51.990;5.688;2023-11-21T04:09:54;11.3;73.9
78516;SHT31;67815;51.990;5.688;2023-11-21T04:12:24;11.3;73.9
78516;SHT31;67815;51.990;5.688;2023-11-21T04:14:53;11.3;74.0
78516;SHT31;67815;51.990;5.688;2023-11-21T04:17:23;11.3;73.9
78516;SHT31;67815;51.990;5.688;2023-11-21T04:19:53;11.3;74.0
78516;SHT31;67815;51.990;5.688;2023-11-21T04:22:23;11.4;74.0
78516;SHT31;67815;51.990;5.688;2023-11-21T04:24:52;11.4;74.2
78516;SHT31;67815;51.990;5.688;2023-11-21T04:27:23;11.4;74.1
78516;SHT31;67815;51.990;5.688;2023-11-21T04:29:52;11.4;74.1
78516;SHT31;67815;51.990;5.688;2023-11-21T04:32:22;11.4;74.1
78516;SHT31;67815;51.990;5.688;2023-11-21T04:34:51;11.4;74.2
78516;SHT31;67815;51.990;5.688;2023-11-21T04:37:21;11.4;74.2
78516;SHT31;67815;51.990;5.688;2023-11-21T04:39:50;11.4;74.2
78516;SHT31;67815;51.990;5.688;2023-11-21T04:42:20;11.4;74.1
78516;SHT31;67815;51.990;5.688;2023-11-21T04:44:50;11.4;74.2
78516;SHT31;67815;51.990;5.688;2023-11-21T04:47:20;11.4;74.2
78516;SHT31;67815;51.990;5.688;2023-11-21T04:49:49;11.4;74.1
78516;SHT31;67815;51.990;5.688;2023-11-21T04:52:19;11.4;74.1
78516;SHT31;67815;51.990;5.688;2023-11-21T04:54:49;11.4;74.1
78516;SHT31;67815;51.990;5.688;2023-11-21T04:57:21;11.4;74.2
78516;SHT31;67815;51.990;5.688;2023-11-21T04:59:51;11.4;74.3
78516;SHT31;67815;51.990;5.688;2023-11-21T05:02:21;11.5;74.5
78516;SHT31;67815;51.990;5.688;2023-11-21T05:04:52;11.5;74.4
78516;SHT31;67815;51.990;5.688;2023-11-21T05:07:23;11.5;74.3
78516;SHT31;67815;51.990;5.688;2023-11-21T05:09:56;11.5;74.4
78516;SHT31;67815;51.990;5.688;2023-11-21T05:12:25;11.5;74.4
78516;SHT31;67815;51.990;5.688;2023-11-21T05:14:55;11.5;74.5
78516;SHT31;67815;51.990;5.688;2023-11-21T05:17:25;11.5;74.5
78516;SHT31;67815;51.990;5.688;2023-11-21T05:19:55;11.5;74.6
78516;SHT31;67815;51.990;5.688;2023-11-21T05:22:24;11.5;74.5
78516;SHT31;67815;51.990;5.688;2023-11-21T05:24:55;11.5;74.6
78516;SHT31;67815;51.990;5.688;2023-11-21T05:27:26;11.5;74.7
78516;SHT31;67815;51.990;5.688;2023-11-21T05:29:56;11.5;74.6
78516;SHT31;67815;51.990;5.688;2023-11-21T05:32:25;11.6;74.5
78516;SHT31;67815;51.990;5.688;2023-11-21T05:34:55;11.6;74.7
78516;SHT31;67815;51.990;5.688;2023-11-21T05:37:24;11.6;74.7
78516;SHT31;67815;51.990;5.688;2023-11-21T05:39:55;11.6;75.0
78516;SHT31;67815;51.990;5.688;2023-11-21T05:42:25;11.6;74.9
78516;SHT31;67815;51.990;5.688;2023-11-21T05:44:55;11.6;74.9
78516;SHT31;67815;51.990;5.688;2023-11-21T05:47:26;11.6;75.0
78516;SHT31;67815;51.990;5.688;2023-11-21T05:49:56;11.6;74.9
78516;SHT31;67815;51.990;5.688;2023-11-21T05:52:25;11.6;75.0
78516;SHT31;67815;51.990;5.688;2023-11-21T05:54:55;11.6;74.9
78516;SHT31;67815;51.990;5.688;2023-11-21T05:57:24;11.7;75.0
78516;SHT31;67815;51.990;5.688;2023-11-21T05:59:54;11.7;74.9
78516;SHT31;67815;51.990;5.688;2023-11-21T06:02:23;11.7;75.1
78516;SHT31;67815;51.990;5.688;2023-11-21T06:04:53;11.7;74.9
78516;SHT31;67815;51.990;5.688;2023-11-21T06:07:22;11.7;74.9
78516;SHT31;67815;51.990;5.688;2023-11-21T06:09:52;11.7;75.0
78516;SHT31;67815;51.990;5.688;2023-11-21T06:12:21;11.7;74.9
78516;SHT31;67815;51.990;5.688;2023-11-21T06:14:51;11.7;74.9
78516;SHT31;67815;51.990;5.688;2023-11-21T06:17:20;11.8;75.0
78516;SHT31;67815;51.990;5.688;2023-11-21T06:19:52;11.8;75.0
78516;SHT31;67815;51.990;5.688;2023-11-21T06:22:23;11.8;75.0
78516;SHT31;67815;51.990;5.688;2023-11-21T06:24:52;11.8;75.1
78516;SHT31;67815;51.990;5.688;2023-11-21T06:27:22;11.8;75.0
78516;SHT31;67815;51.990;5.688;2023-11-21T06:29:52;11.8;75.1
78516;SHT31;67815;51.990;5.688;2023-11-21T06:32:22;11.8;75.0
78516;SHT31;67815;51.990;5.688;2023-11-21T06:34:52;11.8;75.2
78516;SHT31;67815;51.990;5.688;2023-11-21T06:37:22;11.8;75.0
78516;SHT31;67815;51.990;5.688;2023-11-21T06:39:51;11.8;75.1
78516;SHT31;67815;51.990;5.688;2023-11-21T06:42:21;11.8;75.1
78516;SHT31;67815;51.990;5.688;2023-11-21T06:44:51;11.9;75.1
78516;SHT31;67815;51.990;5.688;2023-11-21T06:47:21;11.9;75.2
78516;SHT31;67815;51.990;5.688;2023-11-21T06:49:52;11.9;75.1
78516;SHT31;67815;51.990;5.688;2023-11-21T06:52:22;11.9;75.1
78516;SHT31;67815;51.990;5.688;2023-11-21T06:54:52;11.9;75.2
78516;SHT31;67815;51.990;5.688;2023-11-21T06:57:23;11.9;75.3
78516;SHT31;67815;51.990;5.688;2023-11-21T06:59:53;11.9;75.3
78516;SHT31;67815;51.990;5.688;2023-11-21T07:02:24;11.9;75.2
78516;SHT31;67815;51.990;5.688;2023-11-21T07:04:54;11.9;75.2
78516;SHT31;67815;51.990;5.688;2023-11-21T07:07:24;11.9;75.3
78516;SHT31;67815;51.990;5.688;2023-11-21T07:09:53;11.9;75.4
78516;SHT31;67815;51.990;5.688;2023-11-21T07:12:23;11.9;75.1
78516;SHT31;67815;51.990;5.688;2023-11-21T07:14:53;11.9;75.2
78516;SHT31;67815;51.990;5.688;2023-11-21T07:17:23;12.0;75.1
78516;SHT31;67815;51.990;5.688;2023-11-21T07:19:52;12.0;75.1
78516;SHT31;67815;51.990;5.688;2023-11-21T07:22:22;12.0;75.2
78516;SHT31;67815;51.990;5.688;2023-11-21T07:24:54;12.0;75.1
78516;SHT31;67815;51.990;5.688;2023-11-21T07:27:24;12.0;75.0
78516;SHT31;67815;51.990;5.688;2023-11-21T07:29:53;12.0;75.1
78516;SHT31;67815;51.990;5.688;2023-11-21T07:32:23;12.0;75.2
78516;SHT31;67815;51.990;5.688;2023-11-21T07:34:52;12.0;75.2
78516;SHT31;67815;51.990;5.688;2023-11-21T07:37:25;12.0;75.2
78516;SHT31;67815;51.990;5.688;2023-11-21T07:39:56;12.1;75.3
78516;SHT31;67815;51.990;5.688;2023-11-21T07:42:26;12.1;75.3
78516;SHT31;67815;51.990;5.688;2023-11-21T07:44:56;12.1;75.4
78516;SHT31;67815;51.990;5.688;2023-11-21T07:47:25;12.1;75.3
78516;SHT31;67815;51.990;5.688;2023-11-21T07:49:57;12.1;75.5
78516;SHT31;67815;51.990;5.688;2023-11-21T07:52:26;12.1;75.4
78516;SHT31;67815;51.990;5.688;2023-11-21T07:54:55;12.1;75.7
78516;SHT31;67815;51.990;5.688;2023-11-21T07:57:25;12.1;75.5
78516;SHT31;67815;51.990;5.688;2023-11-21T07:59:55;12.1;75.6
78516;SHT31;67815;51.990;5.688;2023-11-21T08:02:26;12.1;75.5
78516;SHT31;67815;51.990;5.688;2023-11-21T08:04:58;12.1;75.6
78516;SHT31;67815;51.990;5.688;2023-11-21T08:07:28;12.1;75.6
78516;SHT31;67815;51.990;5.688;2023-11-21T08:09:58;12.2;75.6
78516;SHT31;67815;51.990;5.688;2023-11-21T08:12:28;12.2;75.6
78516;SHT31;67815;51.990;5.688;2023-11-21T08:14:57;12.2;75.6
78516;SHT31;67815;51.990;5.688;2023-11-21T08:17:28;12.2;75.6
78516;SHT31;67815;51.990;5.688;2023-11-21T08:19:59;12.2;75.6
78516;SHT31;67815;51.990;5.688;2023-11-21T08:22:30;12.2;75.6
78516;SHT31;67815;51.990;5.688;2023-11-21T08:25:00;12.2;75.7
78516;SHT31;67815;51.990;5.688;2023-11-21T08:27:31;12.2;75.8
78516;SHT31;67815;51.990;5.688;2023-11-21T08:30:02;12.2;75.9
78516;SHT31;67815;51.990;5.688;2023-11-21T08:32:33;12.2;76.1
78516;SHT31;67815;51.990;5.688;2023-11-21T08:35:06;12.2;76.1
78516;SHT31;67815;51.990;5.688;2023-11-21T08:37:38;12.2;76.2
78516;SHT31;67815;51.990;5.688;2023-11-21T08:40:09;12.2;76.4
78516;SHT31;67815;51.990;5.688;2023-11-21T08:42:45;12.2;76.6
78516;SHT31;67815;51.990;5.688;2023-11-21T08:45:15;12.2;76.8
78516;SHT31;67815;51.990;5.688;2023-11-21T08:47:45;12.2;76.8
78516;SHT31;67815;51.990;5.688;2023-11-21T08:50:15;12.3;76.8
78516;SHT31;67815;51.990;5.688;2023-11-21T08:52:46;12.3;76.6
78516;SHT31;67815;51.990;5.688;2023-11-21T08:55:17;12.3;76.5
78516;SHT31;67815;51.990;5.688;2023-11-21T08:57:47;12.3;76.8
78516;SHT31;67815;51.990;5.688;2023-11-21T09:00:20;12.3;76.7
78516;SHT31;67815;51.990;5.688;2023-11-21T09:02:50;12.4;76.4
78516;SHT31;67815;51.990;5.688;2023-11-21T09:05:20;12.4;76.5
78516;SHT31;67815;51.990;5.688;2023-11-21T09:07:50;12.4;76.3
78516;SHT31;67815;51.990;5.688;2023-11-21T09:10:19;12.4;76.3
78516;SHT31;67815;51.990;5.688;2023-11-21T09:12:50;12.4;76.3
78516;SHT31;67815;51.990;5.688;2023-11-21T09:15:21;12.5;76.4
78516;SHT31;67815;51.990;5.688;2023-11-21T09:17:54;12.5;76.3
78516;SHT31;67815;51.990;5.688;2023-11-21T09:20:24;12.5;76.2
78516;SHT31;67815;51.990;5.688;2023-11-21T09:22:53;12.5;76.3
78516;SHT31;67815;51.990;5.688;2023-11-21T09:25:24;12.5;76.4
78516;SHT31;67815;51.990;5.688;2023-11-21T09:27:53;12.6;76.5
78516;SHT31;67815;51.990;5.688;2023-11-21T09:30:23;12.6;76.4
78516;SHT31;67815;51.990;5.688;2023-11-21T09:32:55;12.6;76.7
78516;SHT31;67815;51.990;5.688;2023-11-21T09:35:26;12.6;76.7
78516;SHT31;67815;51.990;5.688;2023-11-21T09:37:55;12.6;76.8
78516;SHT31;67815;51.990;5.688;2023-11-21T09:40:25;12.6;76.8
78516;SHT31;67815;51.990;5.688;2023-11-21T09:42:56;12.6;76.7
78516;SHT31;67815;51.990;5.688;2023-11-21T09:45:29;12.6;76.8
78516;SHT31;67815;51.990;5.688;2023-11-21T09:48:02;12.6;77.1
78516;SHT31;67815;51.990;5.688;2023-11-21T09:50:33;12.6;77.1
78516;SHT31;67815;51.990;5.688;2023-11-21T09:53:11;12.6;77.7
78516;SHT31;67815;51.990;5.688;2023-11-21T09:55:45;12.6;78.1
78516;SHT31;67815;51.990;5.688;2023-11-21T09:58:18;12.6;78.0
78516;SHT31;67815;51.990;5.688;2023-11-21T10:00:56;12.7;77.7
78516;SHT31;67815;51.990;5.688;2023-11-21T10:03:27;12.7;78.1
78516;SHT31;67815;51.990;5.688;2023-11-21T10:05:58;12.7;77.9
78516;SHT31;67815;51.990;5.688;2023-11-21T10:08:29;12.7;77.9
78516;SHT31;67815;51.990;5.688;2023-11-21T10:10:59;12.7;77.7
78516;SHT31;67815;51.990;5.688;2023-11-21T10:13:33;12.7;77.1
78516;SHT31;67815;51.990;5.688;2023-11-21T10:16:05;12.7;77.2
78516;SHT31;67815;51.990;5.688;2023-11-21T10:18:39;12.7;77.6
78516;SHT31;67815;51.990;5.688;2023-11-21T10:21:09;12.7;77.7
78516;SHT31;67815;51.990;5.688;2023-11-21T10:23:39;12.7;77.5
78516;SHT31;67815;51.990;5.688;2023-11-21T10:26:12;12.7;77.5
78516;SHT31;67815;51.990;5.688;2023-11-21T10:28:57;12.7;77.6
78516;SHT31;67815;51.990;5.688;2023-11-21T10:31:30;12.7;77.4
78516;SHT31;67815;51.990;5.688;2023-11-21T10:34:14;12.7;77.3
78516;SHT31;67815;51.990;5.688;2023-11-21T10:36:45;12.8;77.3
78516;SHT31;67815;51.990;5.688;2023-11-21T10:39:17;12.8;76.8
78516;SHT31;67815;51.990;5.688;2023-11-21T10:41:49;12.8;76.7
78516;SHT31;67815;51.990;5.688;2023-11-21T10:44:19;12.8;76.5
78516;SHT31;67815;51.990;5.688;2023-11-21T10:46:52;12.8;76.4
78516;SHT31;67815;51.990;5.688;2023-11-21T10:49:25;12.7;76.6
78516;SHT31;67815;51.990;5.688;2023-11-21T10:51:55;12.7;76.7
78516;SHT31;67815;51.990;5.688;2023-11-21T10:54:26;12.7;76.8
78516;SHT31;67815;51.990;5.688;2023-11-21T10:56:58;12.8;77.0
78516;SHT31;67815;51.990;5.688;2023-11-21T10:59:31;12.8;77.1
78516;SHT31;67815;51.990;5.688;2023-11-21T11:02:04;12.8;76.9
78516;SHT31;67815;51.990;5.688;2023-11-21T11:04:36;12.8;76.9
78516;SHT31;67815;51.990;5.688;2023-11-21T11:07:12;12.8;76.6
78516;SHT31;67815;51.990;5.688;2023-11-21T11:09:44;12.8;76.7
78516;SHT31;67815;51.990;5.688;2023-11-21T11:12:14;12.8;76.6
78516;SHT31;67815;51.990;5.688;2023-11-21T11:14:45;12.8;76.4
78516;SHT31;67815;51.990;5.688;2023-11-21T11:17:15;12.8;76.3
78516;SHT31;67815;51.990;5.688;2023-11-21T11:19:48;12.8;76.3
78516;SHT31;67815;51.990;5.688;2023-11-21T11:22:32;12.8;76.1
78516;SHT31;67815;51.990;5.688;2023-11-21T11:25:57;12.8;76.0
78516;SHT31;67815;51.990;5.688;2023-11-21T11:28:38;12.8;76.2
78516;SHT31;67815;51.990;5.688;2023-11-21T11:31:18;12.8;76.1
78516;SHT31;67815;51.990;5.688;2023-11-21T11:33:58;12.8;76.3
78516;SHT31;67815;51.990;5.688;2023-11-21T11:36:34;12.8;76.3
78516;SHT31;67815;51.990;5.688;2023-11-21T11:39:33;12.8;76.5
78516;SHT31;67815;51.990;5.688;2023-11-21T11:42:06;12.8;76.6
78516;SHT31;67815;51.990;5.688;2023-11-21T11:44:49;12.8;76.9
78516;SHT31;67815;51.990;5.688;2023-11-21T11:47:26;12.8;77.0
78516;SHT31;67815;51.990;5.688;2023-11-21T11:50:04;12.7;76.8
78516;SHT31;67815;51.990;5.688;2023-11-21T11:52:43;12.7;77.0
78516;SHT31;67815;51.990;5.688;2023-11-21T11:55:15;12.7;77.3
78516;SHT31;67815;51.990;5.688;2023-11-21T11:57:47;12.7;77.3
78516;SHT31;67815;51.990;5.688;2023-11-21T12:00:19;12.7;77.2
78516;SHT31;67815;51.990;5.688;2023-11-21T12:02:53;12.7;77.5
78516;SHT31;67815;51.990;5.688;2023-11-21T12:05:25;12.7;77.7
78516;SHT31;67815;51.990;5.688;2023-11-21T12:07:58;12.7;77.7
78516;SHT31;67815;51.990;5.688;2023-11-21T12:10:30;12.7;77.6
78516;SHT31;67815;51.990;5.688;2023-11-21T12:13:02;12.7;77.5
78516;SHT31;67815;51.990;5.688;2023-11-21T12:15:33;12.7;77.1
78516;SHT31;67815;51.990;5.688;2023-11-21T12:18:04;12.7;77.6
78516;SHT31;67815;51.990;5.688;2023-11-21T12:20:33;12.7;77.3
78516;SHT31;67815;51.990;5.688;2023-11-21T12:23:06;12.7;77.5
78516;SHT31;67815;51.990;5.688;2023-11-21T12:25:37;12.7;77.1
78516;SHT31;67815;51.990;5.688;2023-11-21T12:28:07;12.7;77.0
78516;SHT31;67815;51.990;5.688;2023-11-21T12:30:37;12.8;76.9
78516;SHT31;67815;51.990;5.688;2023-11-21T12:33:09;12.8;76.7
78516;SHT31;67815;51.990;5.688;2023-11-21T12:35:42;12.8;76.8
78516;SHT31;67815;51.990;5.688;2023-11-21T12:38:12;12.8;77.0
78516;SHT31;67815;51.990;5.688;2023-11-21T12:40:44;12.8;77.0
78516;SHT31;67815;51.990;5.688;2023-11-21T12:43:13;12.8;76.9
78516;SHT31;67815;51.990;5.688;2023-11-21T12:45:46;12.8;76.1
78516;SHT31;67815;51.990;5.688;2023-11-21T12:48:15;12.8;76.2
78516;SHT31;67815;51.990;5.688;2023-11-21T12:50:50;12.8;75.7
78516;SHT31;67815;51.990;5.688;2023-11-21T12:53:21;12.8;76.1
78516;SHT31;67815;51.990;5.688;2023-11-21T12:55:50;12.8;76.1
78516;SHT31;67815;51.990;5.688;2023-11-21T12:58:22;12.8;75.9
78516;SHT31;67815;51.990;5.688;2023-11-21T13:00:53;12.8;75.9
78516;SHT31;67815;51.990;5.688;2023-11-21T13:03:25;12.8;76.0
78516;SHT31;67815;51.990;5.688;2023-11-21T13:05:55;12.8;76.2
78516;SHT31;67815;51.990;5.688;2023-11-21T13:08:26;12.8;76.1
78516;SHT31;67815;51.990;5.688;2023-11-21T13:10:58;12.8;76.1
78516;SHT31;67815;51.990;5.688;2023-11-21T13:13:29;12.8;76.4
78516;SHT31;67815;51.990;5.688;2023-11-21T13:16:01;12.8;76.2
78516;SHT31;67815;51.990;5.688;2023-11-21T13:18:32;12.8;75.9
78516;SHT31;67815;51.990;5.688;2023-11-21T13:21:03;12.8;76.0
78516;SHT31;67815;51.990;5.688;2023-11-21T13:23:38;12.8;75.8
78516;SHT31;67815;51.990;5.688;2023-11-21T13:26:09;12.8;75.5
78516;SHT31;67815;51.990;5.688;2023-11-21T13:28:39;12.8;75.5
78516;SHT31;67815;51.990;5.688;2023-11-21T13:31:13;12.8;75.2
78516;SHT31;67815;51.990;5.688;2023-11-21T13:33:50;12.8;75.1
78516;SHT31;67815;51.990;5.688;2023-11-21T13:36:24;12.9;75.3
78516;SHT31;67815;51.990;5.688;2023-11-21T13:38:57;12.9;75.4
78516;SHT31;67815;51.990;5.688;2023-11-21T13:41:32;12.9;75.6
78516;SHT31;67815;51.990;5.688;2023-11-21T13:44:02;12.9;75.2
78516;SHT31;67815;51.990;5.688;2023-11-21T13:46:38;12.9;74.9
78516;SHT31;67815;51.990;5.688;2023-11-21T13:49:08;12.9;74.9
78516;SHT31;67815;51.990;5.688;2023-11-21T13:51:38;12.9;75.2
78516;SHT31;67815;51.990;5.688;2023-11-21T13:54:12;12.9;75.0
78516;SHT31;67815;51.990;5.688;2023-11-21T13:56:42;12.9;75.2
78516;SHT31;67815;51.990;5.688;2023-11-21T13:59:13;12.9;74.9
78516;SHT31;67815;51.990;5.688;2023-11-21T14:01:51;13.0;74.8
78516;SHT31;67815;51.990;5.688;2023-11-21T14:04:26;13.0;74.6
78516;SHT31;67815;51.990;5.688;2023-11-21T14:07:09;13.0;74.4
78516;SHT31;67815;51.990;5.688;2023-11-21T14:09:48;13.0;74.5
78516;SHT31;67815;51.990;5.688;2023-11-21T14:12:19;13.0;74.0
78516;SHT31;67815;51.990;5.688;2023-11-21T14:14:49;12.9;73.9
78516;SHT31;67815;51.990;5.688;2023-11-21T14:17:20;12.9;73.6
78516;SHT31;67815;51.990;5.688;2023-11-21T14:19:51;12.9;73.7
78516;SHT31;67815;51.990;5.688;2023-11-21T14:22:23;12.9;73.8
78516;SHT31;67815;51.990;5.688;2023-11-21T14:24:53;12.9;73.8
78516;SHT31;67815;51.990;5.688;2023-11-21T14:27:26;12.8;73.5
78516;SHT31;67815;51.990;5.688;2023-11-21T14:29:56;12.8;73.7
78516;SHT31;67815;51.990;5.688;2023-11-21T14:32:26;12.7;73.8
78516;SHT31;67815;51.990;5.688;2023-11-21T14:34:56;12.7;73.8
78516;SHT31;67815;51.990;5.688;2023-11-21T14:37:26;12.6;74.0
78516;SHT31;67815;51.990;5.688;2023-11-21T14:39:55;12.6;73.9
78516;SHT31;67815;51.990;5.688;2023-11-21T14:42:25;12.6;74.1
78516;SHT31;67815;51.990;5.688;2023-11-21T14:44:57;12.5;74.0
78516;SHT31;67815;51.990;5.688;2023-11-21T14:47:30;12.5;74.2
78516;SHT31;67815;51.990;5.688;2023-11-21T14:50:02;12.5;74.4
78516;SHT31;67815;51.990;5.688;2023-11-21T14:52:36;12.5;74.1
78516;SHT31;67815;51.990;5.688;2023-11-21T14:55:12;12.5;74.3
78516;SHT31;67815;51.990;5.688;2023-11-21T14:57:53;12.4;74.4
78516;SHT31;67815;51.990;5.688;2023-11-21T15:00:23;12.4;73.7
78516;SHT31;67815;51.990;5.688;2023-11-21T15:03:12;12.4;73.0
78516;SHT31;67815;51.990;5.688;2023-11-21T15:05:55;12.4;73.2
78516;SHT31;67815;51.990;5.688;2023-11-21T15:08:25;12.4;72.7
78516;SHT31;67815;51.990;5.688;2023-11-21T15:10:59;12.4;73.0
78516;SHT31;67815;51.990;5.688;2023-11-21T15:13:33;12.3;72.8
78516;SHT31;67815;51.990;5.688;2023-11-21T15:16:03;12.3;72.7
78516;SHT31;67815;51.990;5.688;2023-11-21T15:18:35;12.3;72.9
78516;SHT31;67815;51.990;5.688;2023-11-21T15:21:06;12.2;72.7
78516;SHT31;67815;51.990;5.688;2023-11-21T15:23:39;12.2;72.2
78516;SHT31;67815;51.990;5.688;2023-11-21T15:26:09;12.2;71.9
78516;SHT31;67815;51.990;5.688;2023-11-21T15:28:39;12.1;71.2
78516;SHT31;67815;51.990;5.688;2023-11-21T15:31:11;12.1;70.2
78516;SHT31;67815;51.990;5.688;2023-11-21T15:33:41;12.1;70.1
78516;SHT31;67815;51.990;5.688;2023-11-21T15:36:13;12.0;69.7
78516;SHT31;67815;51.990;5.688;2023-11-21T15:38:43;12.0;69.7
78516;SHT31;67815;51.990;5.688;2023-11-21T15:41:12;11.9;69.9
78516;SHT31;67815;51.990;5.688;2023-11-21T15:43:44;11.9;69.2
78516;SHT31;67815;51.990;5.688;2023-11-21T15:46:16;11.9;69.1
78516;SHT31;67815;51.990;5.688;2023-11-21T15:48:46;11.8;69.7
78516;SHT31;67815;51.990;5.688;2023-11-21T15:51:21;11.8;70.0
78516;SHT31;67815;51.990;5.688;2023-11-21T15:53:51;11.8;69.4
78516;SHT31;67815;51.990;5.688;2023-11-21T15:56:21;11.7;69.3
78516;SHT31;67815;51.990;5.688;2023-11-21T15:58:50;11.7;69.2
78516;SHT31;67815;51.990;5.688;2023-11-21T16:01:21;11.7;69.4
78516;SHT31;67815;51.990;5.688;2023-11-21T16:03:50;11.7;68.7
78516;SHT31;67815;51.990;5.688;2023-11-21T16:06:24;11.7;67.4
78516;SHT31;67815;51.990;5.688;2023-11-21T16:08:55;11.6;68.1
78516;SHT31;67815;51.990;5.688;2023-11-21T16:11:26;11.6;68.1
78516;SHT31;67815;51.990;5.688;2023-11-21T16:13:57;11.6;67.6
78516;SHT31;67815;51.990;5.688;2023-11-21T16:16:27;11.5;67.1
78516;SHT31;67815;51.990;5.688;2023-11-21T16:18:56;11.5;67.7
78516;SHT31;67815;51.990;5.688;2023-11-21T16:21:26;11.5;67.1
78516;SHT31;67815;51.990;5.688;2023-11-21T16:23:56;11.4;67.3
78516;SHT31;67815;51.990;5.688;2023-11-21T16:26:26;11.4;67.9
78516;SHT31;67815;51.990;5.688;2023-11-21T16:28:55;11.4;67.2